Time;durP1;ratioP1;P1;durP2;ratioP2;P2;SDS_P1;SDS_P2;PMS_P1;PMS_P2;Temp;Humidity;BMP_temperature;BMP_pressure;BME280_temperature;BME280_humidity;BME280_pressure;Samples;Min_cycle;Max_cycle;Signal;HPM_P1;HPM_P2
2022/04/12 00:00:41;;;;;;;10.65;4.25;;;6.20;99.90;;;;;;5045722;28;20120;-78
2022/04/12 00:03:09;;;;;;;10.43;3.88;;;6.20;99.90;;;;;;5042308;28;20041;-77
2022/04/12 00:05:35;;;;;;;11.18;4.90;;;6.20;99.90;;;;;;5045640;28;20057;-76
2022/04/12 00:08:02;;;;;;;10.85;4.28;;;6.20;99.90;;;;;;5039592;28;20041;-77
2022/04/12 00:10:29;;;;;;;10.27;4.70;;;6.10;99.90;;;;;;5045316;28;20044;-77
2022/04/12 00:12:56;;;;;;;12.18;4.47;;;6.10;99.90;;;;;;5031463;28;20422;-77
2022/04/12 00:15:22;;;;;;;11.68;4.05;;;6.10;99.90;;;;;;5041970;28;20037;-77
2022/04/12 00:20:33;;;;;;;11.43;4.68;;;6.00;99.90;;;;;;5037714;28;20049;-77
2022/04/12 00:22:59;;;;;;;8.30;3.85;;;6.00;99.90;;;;;;5042005;28;20049;-77
2022/04/12 00:25:26;;;;;;;8.85;4.40;;;6.00;99.90;;;;;;5041115;28;20387;-77
2022/04/12 00:27:54;;;;;;;11.32;4.72;;;6.00;99.90;;;;;;5043004;28;20466;-77
2022/04/12 00:30:20;;;;;;;9.57;4.63;;;6.00;99.90;;;;;;5045866;28;20124;-77
2022/04/12 00:32:46;;;;;;;11.75;4.43;;;6.00;99.90;;;;;;5042067;28;20098;-77
2022/04/12 00:35:13;;;;;;;10.50;4.80;;;5.90;99.90;;;;;;5018476;28;20037;-78
2022/04/12 00:37:39;;;;;;;9.75;4.72;;;6.00;99.90;;;;;;5034717;28;20033;-77
2022/04/12 00:40:05;;;;;;;11.82;4.07;;;6.00;99.90;;;;;;5026808;28;20045;-77
2022/04/12 00:42:31;;;;;;;8.90;4.72;;;6.00;99.90;;;;;;5019329;28;20091;-76
2022/04/12 00:44:58;;;;;;;15.30;5.40;;;6.00;99.90;;;;;;5043391;28;20040;-76
2022/04/12 00:47:24;;;;;;;12.75;5.00;;;6.00;99.90;;;;;;5048337;28;20041;-77
2022/04/12 00:49:50;;;;;;;11.30;4.85;;;6.00;99.90;;;;;;5045176;28;20051;-77
2022/04/12 00:52:17;;;;;;;11.25;4.55;;;6.00;99.90;;;;;;5048681;28;20061;-77
2022/04/12 00:54:44;;;;;;;12.93;5.05;;;6.00;99.90;;;;;;5047079;28;20048;-77
2022/04/12 00:57:11;;;;;;;11.05;4.63;;;6.00;99.90;;;;;;5042748;28;20138;-76
2022/04/12 00:59:37;;;;;;;10.65;4.78;;;6.00;99.90;;;;;;5038052;28;20393;-77
2022/04/12 01:02:04;;;;;;;11.65;4.93;;;6.00;99.90;;;;;;5044277;28;20037;-76
2022/04/12 01:04:31;;;;;;;11.65;5.82;;;6.00;99.90;;;;;;5047269;28;20047;-77
2022/04/12 01:06:57;;;;;;;13.48;5.07;;;6.00;99.90;;;;;;5048067;28;20106;-77
2022/04/12 01:09:27;;;;;;;10.35;5.32;;;6.00;99.90;;;;;;5048860;28;20438;-76
2022/04/12 01:11:54;;;;;;;12.73;5.22;;;6.00;99.90;;;;;;5048935;28;20044;-76
2022/04/12 01:14:21;;;;;;;9.50;5.00;;;5.90;99.90;;;;;;5045306;28;20048;-76
2022/04/12 01:16:47;;;;;;;12.10;5.82;;;6.00;99.90;;;;;;5046769;28;20053;-77
2022/04/12 01:19:12;;;;;;;12.70;5.43;;;5.90;99.90;;;;;;5044503;28;20410;-77
2022/04/12 01:21:49;;;;;;;12.15;5.53;;;6.00;99.90;;;;;;5044157;28;20036;-77
2022/04/12 01:24:15;;;;;;;11.85;4.93;;;5.90;99.90;;;;;;5046228;28;20501;-78
2022/04/12 01:26:41;;;;;;;13.07;5.38;;;5.90;99.90;;;;;;5047432;28;20068;-77
2022/04/12 01:29:07;;;;;;;12.70;5.38;;;5.90;99.90;;;;;;5046506;28;20570;-77
2022/04/12 01:31:32;;;;;;;12.07;5.57;;;5.90;99.90;;;;;;5046087;28;20049;-77
2022/04/12 01:33:58;;;;;;;13.40;5.30;;;5.90;99.90;;;;;;5048416;28;20045;-77
2022/04/12 01:36:24;;;;;;;12.30;5.05;;;5.80;99.90;;;;;;5043680;28;20045;-77
2022/04/12 01:38:49;;;;;;;11.57;5.97;;;5.80;99.90;;;;;;5044323;28;20065;-77
2022/04/12 01:41:15;;;;;;;11.32;5.68;;;5.80;99.90;;;;;;5049501;28;20231;-77
2022/04/12 01:43:41;;;;;;;11.25;5.68;;;6.00;99.90;;;;;;5029660;28;20037;-77
2022/04/12 01:46:07;;;;;;;10.13;4.88;;;5.80;99.90;;;;;;5047932;28;20078;-77
2022/04/12 01:48:32;;;;;;;13.90;5.68;;;5.80;99.90;;;;;;5046057;28;20037;-77
2022/04/12 01:50:58;;;;;;;13.77;5.90;;;5.80;99.90;;;;;;5044339;28;20524;-77
2022/04/12 01:53:24;;;;;;;13.40;5.65;;;5.80;99.90;;;;;;5040004;28;20049;-77
2022/04/12 01:55:49;;;;;;;11.45;5.95;;;5.80;99.90;;;;;;5051404;28;20052;-77
2022/04/12 01:58:15;;;;;;;9.43;5.38;;;5.80;99.90;;;;;;5014810;28;20102;-77
2022/04/12 02:00:42;;;;;;;15.90;5.90;;;5.80;99.90;;;;;;5071894;28;20036;-77
2022/04/12 02:03:09;;;;;;;14.85;6.00;;;5.80;99.90;;;;;;5054281;28;20115;-77
2022/04/12 02:05:35;;;;;;;14.02;6.15;;;5.70;99.90;;;;;;5048407;28;20033;-77
2022/04/12 02:08:01;;;;;;;11.23;6.13;;;5.70;99.90;;;;;;5062077;28;20067;-77
2022/04/12 02:10:26;;;;;;;11.52;6.10;;;5.70;99.90;;;;;;5050644;28;20468;-76
2022/04/12 02:12:52;;;;;;;12.88;6.68;;;5.70;99.90;;;;;;5035570;28;20048;-77
2022/04/12 02:15:18;;;;;;;12.25;6.82;;;5.70;99.90;;;;;;5066481;28;20536;-77
2022/04/12 02:17:44;;;;;;;16.67;6.78;;;5.60;99.90;;;;;;5080018;28;20056;-77
2022/04/12 02:20:10;;;;;;;12.07;6.18;;;5.60;99.90;;;;;;5072509;28;20048;-77
2022/04/12 02:22:36;;;;;;;13.52;6.20;;;5.60;99.90;;;;;;5067347;28;20418;-77
2022/04/12 02:25:03;;;;;;;13.48;6.90;;;5.60;99.90;;;;;;5050241;28;20317;-77
2022/04/12 02:27:28;;;;;;;11.77;6.45;;;5.60;99.90;;;;;;5049435;28;20464;-76
2022/04/12 02:29:57;;;;;;;15.32;7.03;;;5.50;99.90;;;;;;5049617;28;20052;-76
2022/04/12 02:32:23;;;;;;;13.73;6.65;;;5.50;99.90;;;;;;5049143;28;20428;-77
2022/04/12 02:34:48;;;;;;;17.65;6.57;;;5.50;99.90;;;;;;5066764;28;20063;-77
2022/04/12 02:37:14;;;;;;;13.90;7.18;;;5.50;99.90;;;;;;5070870;28;20044;-78
2022/04/12 02:39:40;;;;;;;12.30;6.57;;;5.50;99.90;;;;;;5043397;28;20153;-76
2022/04/12 02:42:06;;;;;;;16.30;7.07;;;5.50;99.90;;;;;;5073684;28;20044;-77
2022/04/12 02:44:31;;;;;;;14.60;7.22;;;5.50;99.90;;;;;;5040746;28;20058;-77
2022/04/12 02:46:57;;;;;;;16.35;7.28;;;5.50;99.90;;;;;;5054638;28;20050;-77
2022/04/12 02:49:23;;;;;;;14.40;6.78;;;5.50;99.90;;;;;;5072578;28;20528;-77
2022/04/12 02:51:50;;;;;;;18.20;7.55;;;5.40;99.90;;;;;;5062925;28;20052;-77
2022/04/12 02:54:16;;;;;;;13.07;7.90;;;5.40;99.90;;;;;;5069731;28;20040;-77
2022/04/12 02:56:41;;;;;;;15.18;7.70;;;5.40;99.90;;;;;;5054634;28;20064;-77
2022/04/12 02:59:07;;;;;;;14.27;6.97;;;5.40;99.90;;;;;;5039364;28;20421;-78
2022/04/12 03:01:34;;;;;;;15.60;7.15;;;5.40;99.90;;;;;;5065412;28;20085;-77
2022/04/12 03:04:00;;;;;;;12.55;7.03;;;5.30;99.90;;;;;;5054761;28;20507;-78
2022/04/12 03:06:25;;;;;;;12.50;6.53;;;5.30;99.90;;;;;;5059013;28;20053;-76
2022/04/12 03:08:51;;;;;;;11.73;6.63;;;5.30;99.90;;;;;;5043056;28;20128;-77
2022/04/12 03:11:17;;;;;;;17.05;7.20;;;5.30;99.90;;;;;;5046531;28;20430;-77
2022/04/12 03:13:42;;;;;;;14.70;7.13;;;5.30;99.90;;;;;;5066724;28;20040;-77
2022/04/12 03:16:08;;;;;;;13.10;7.00;;;5.20;99.90;;;;;;5050980;28;20118;-76
2022/04/12 03:18:34;;;;;;;13.55;7.68;;;5.20;99.90;;;;;;5055983;28;20587;-77
2022/04/12 03:20:59;;;;;;;13.27;7.60;;;5.20;99.90;;;;;;5062424;28;20179;-77
2022/04/12 03:23:25;;;;;;;14.43;7.22;;;5.20;99.90;;;;;;5040108;28;20040;-76
2022/04/12 03:25:51;;;;;;;16.25;7.90;;;5.10;99.90;;;;;;5059718;28;20055;-77
2022/04/12 03:28:17;;;;;;;15.90;7.70;;;5.10;99.90;;;;;;5044777;28;20041;-77
2022/04/12 03:30:42;;;;;;;14.43;7.95;;;5.10;99.90;;;;;;5062317;28;20051;-77
2022/04/12 03:33:08;;;;;;;17.45;7.88;;;5.10;99.90;;;;;;5066793;28;20091;-77
2022/04/12 03:35:34;;;;;;;16.40;8.35;;;5.10;99.90;;;;;;5068988;28;20048;-77
2022/04/12 03:38:01;;;;;;;17.67;8.63;;;5.00;99.90;;;;;;5062376;28;20072;-77
2022/04/12 03:40:33;;;;;;;12.63;7.78;;;5.00;99.90;;;;;;5069139;28;20040;-77
2022/04/12 03:43:04;;;;;;;16.65;8.02;;;5.00;99.90;;;;;;5067756;28;20198;-76
2022/04/12 03:45:31;;;;;;;16.67;8.02;;;5.00;99.90;;;;;;5067263;28;20100;-76
2022/04/12 03:47:57;;;;;;;15.95;8.38;;;4.90;99.90;;;;;;5035787;28;20075;-76
2022/04/12 03:50:23;;;;;;;16.33;8.45;;;5.00;99.90;;;;;;5050885;28;20484;-77
2022/04/12 03:52:50;;;;;;;12.85;7.95;;;5.00;99.90;;;;;;5064316;28;20050;-77
2022/04/12 03:55:30;;;;;;;14.40;7.82;;;4.90;99.90;;;;;;5038125;28;20051;-76
2022/04/12 03:58:00;;;;;;;17.00;8.70;;;4.90;99.90;;;;;;5052822;28;20525;-77
2022/04/12 04:00:26;;;;;;;13.90;8.30;;;4.90;99.90;;;;;;5035700;28;20427;-76
2022/04/12 04:02:52;;;;;;;17.25;9.05;;;4.90;99.90;;;;;;5048719;28;20160;-76
2022/04/12 04:05:17;;;;;;;13.82;8.00;;;4.90;99.90;;;;;;5064297;28;20127;-76
2022/04/12 04:07:43;;;;;;;17.88;8.82;;;4.90;99.90;;;;;;5060238;28;20037;-77
2022/04/12 04:10:09;;;;;;;13.98;9.07;;;4.90;99.90;;;;;;5064409;28;20055;-77
2022/04/12 04:12:35;;;;;;;18.00;8.13;;;5.00;99.90;;;;;;5049425;28;20182;-77
2022/04/12 04:15:01;;;;;;;16.02;8.25;;;5.00;99.90;;;;;;5053057;28;20047;-77
2022/04/12 04:17:26;;;;;;;15.00;8.57;;;4.90;99.90;;;;;;5052615;28;20393;-77
2022/04/12 04:19:52;;;;;;;16.58;8.85;;;4.90;99.90;;;;;;5049195;28;20049;-77
2022/04/12 04:22:18;;;;;;;15.85;8.32;;;4.90;99.90;;;;;;5048023;28;20047;-77
2022/04/12 04:24:43;;;;;;;17.20;9.38;;;4.90;99.90;;;;;;5032064;28;20045;-76
2022/04/12 04:27:09;;;;;;;17.08;8.60;;;4.90;99.90;;;;;;5048413;28;20071;-76
2022/04/12 04:29:35;;;;;;;16.98;9.43;;;4.90;99.90;;;;;;5061645;28;20037;-77
2022/04/12 04:32:02;;;;;;;18.92;10.07;;;4.90;99.90;;;;;;5040741;28;20087;-77
2022/04/12 04:34:27;;;;;;;21.65;10.75;;;4.90;99.90;;;;;;5045660;28;20051;-76
2022/04/12 04:36:53;;;;;;;18.05;9.88;;;4.90;99.90;;;;;;5061859;28;20076;-77
2022/04/12 04:39:19;;;;;;;19.50;10.65;;;4.90;99.90;;;;;;5063628;28;20493;-77
2022/04/12 04:41:44;;;;;;;17.90;10.30;;;4.90;99.90;;;;;;5058337;28;20528;-77
2022/04/12 04:44:10;;;;;;;20.23;10.63;;;4.90;99.90;;;;;;5056137;28;20041;-77
2022/04/12 04:46:36;;;;;;;20.88;11.57;;;4.90;99.90;;;;;;5060221;28;20070;-76
2022/04/12 04:49:02;;;;;;;26.27;12.05;;;5.00;99.90;;;;;;5030947;28;20493;-77
2022/04/12 04:51:28;;;;;;;25.00;11.48;;;4.80;99.90;;;;;;5056143;28;20124;-76
2022/04/12 04:53:58;;;;;;;17.85;11.20;;;4.80;99.90;;;;;;5027874;28;20119;-77
2022/04/12 04:56:27;;;;;;;20.52;11.60;;;4.80;99.90;;;;;;5038892;28;20049;-76
2022/04/12 04:58:54;;;;;;;22.05;10.68;;;5.70;99.90;;;;;;5043020;28;20438;-76
2022/04/12 05:01:22;;;;;;;19.65;9.95;;;4.80;99.90;;;;;;5019930;28;20056;-76
2022/04/12 05:03:50;;;;;;;21.88;11.30;;;4.90;99.90;;;;;;5039602;28;20497;-76
2022/04/12 05:06:16;;;;;;;18.75;9.82;;;4.20;99.90;;;;;;5038162;28;20079;-76
2022/04/12 05:08:41;;;;;;;17.30;11.00;;;4.90;99.90;;;;;;5037485;28;20041;-76
2022/04/12 05:11:07;;;;;;;19.92;11.05;;;4.60;99.90;;;;;;5036777;28;20077;-77
2022/04/12 05:13:33;;;;;;;17.17;10.68;;;4.90;99.90;;;;;;5040017;28;20037;-77
2022/04/12 05:15:58;;;;;;;16.55;10.90;;;5.00;99.90;;;;;;5038309;28;20044;-76
2022/04/12 05:18:24;;;;;;;18.17;10.93;;;5.00;99.90;;;;;;5037733;28;20041;-76
2022/04/12 05:20:50;;;;;;;18.92;11.07;;;5.10;99.90;;;;;;5029371;28;20229;-76
2022/04/12 05:23:16;;;;;;;22.20;11.32;;;5.10;99.90;;;;;;5033621;28;20445;-78
2022/04/12 05:25:42;;;;;;;22.25;10.98;;;5.20;99.90;;;;;;5038569;28;20069;-78
2022/04/12 05:28:08;;;;;;;19.02;10.95;;;5.30;99.90;;;;;;5039289;28;20232;-78
2022/04/12 05:30:34;;;;;;;20.83;11.80;;;5.40;99.90;;;;;;5044311;28;20148;-75
2022/04/12 05:33:00;;;;;;;19.88;12.02;;;5.60;99.90;;;;;;5044801;28;20528;-75
2022/04/12 05:35:26;;;;;;;17.30;10.52;;;5.70;99.90;;;;;;5045979;28;20595;-76
2022/04/12 05:37:52;;;;;;;22.58;11.00;;;5.80;99.90;;;;;;5015085;28;21095;-77
2022/04/12 05:40:20;;;;;;;20.67;10.38;;;5.90;99.90;;;;;;5020124;28;20037;-77
2022/04/12 05:42:46;;;;;;;20.10;10.77;;;6.00;99.90;;;;;;5046002;28;20080;-77
2022/04/12 05:45:12;;;;;;;20.50;11.20;;;6.60;99.90;;;;;;5020891;28;20398;-77
2022/04/12 05:47:49;;;;;;;17.20;9.85;;;6.90;99.90;;;;;;5017153;28;20063;-77
2022/04/12 05:50:16;;;;;;;16.13;10.93;;;7.00;99.90;;;;;;5038420;28;20044;-78
2022/04/12 05:52:43;;;;;;;19.08;11.38;;;6.90;99.90;;;;;;5035202;28;20076;-77
2022/04/12 05:55:11;;;;;;;16.95;11.40;;;6.90;99.90;;;;;;5038488;28;20044;-76
2022/04/12 05:57:38;;;;;;;20.33;11.55;;;6.80;99.90;;;;;;5050831;28;20413;-77
2022/04/12 06:00:09;;;;;;;18.92;10.65;;;6.80;99.90;;;;;;5032503;28;20443;-77
2022/04/12 06:02:35;;;;;;;19.15;11.55;;;6.70;99.90;;;;;;5041820;28;20512;-77
2022/04/12 06:05:01;;;;;;;18.77;12.10;;;6.70;99.90;;;;;;5040816;28;20068;-77
2022/04/12 06:07:34;;;;;;;22.00;11.77;;;6.60;99.90;;;;;;5067849;28;20090;-76
2022/04/12 06:10:01;;;;;;;25.63;11.77;;;6.60;99.90;;;;;;5041862;28;20045;-77
2022/04/12 06:12:27;;;;;;;17.35;11.02;;;6.70;99.90;;;;;;5066467;28;20052;-76
2022/04/12 06:14:54;;;;;;;19.85;10.57;;;6.70;99.90;;;;;;5047938;28;20076;-77
2022/04/12 06:17:21;;;;;;;15.48;10.07;;;6.70;99.90;;;;;;5042040;28;20048;-76
2022/04/12 06:19:46;;;;;;;17.63;10.60;;;6.70;99.90;;;;;;5034366;28;20048;-77
2022/04/12 06:22:12;;;;;;;19.95;11.27;;;6.80;99.90;;;;;;5049899;28;20036;-77
2022/04/12 06:24:39;;;;;;;15.27;9.57;;;6.90;99.90;;;;;;5050744;28;20091;-76
2022/04/12 06:27:05;;;;;;;16.63;9.73;;;6.90;99.90;;;;;;5047437;28;20411;-78
2022/04/12 06:29:32;;;;;;;16.58;10.05;;;7.00;99.90;;;;;;5027624;28;20047;-77
2022/04/12 06:31:58;;;;;;;14.65;8.95;;;7.10;99.90;;;;;;5050362;28;20044;-77
2022/04/12 06:34:24;;;;;;;16.95;9.68;;;7.80;99.90;;;;;;5051539;28;20589;-77
2022/04/12 06:36:49;;;;;;;15.05;9.25;;;7.30;99.90;;;;;;5049336;28;20119;-76
2022/04/12 06:39:15;;;;;;;16.15;9.73;;;7.40;99.90;;;;;;5053720;28;20044;-77
2022/04/12 06:41:41;;;;;;;18.77;10.13;;;7.40;99.90;;;;;;5034708;28;20033;-75
2022/04/12 06:44:07;;;;;;;17.13;9.75;;;7.40;99.90;;;;;;5047500;28;20476;-77
2022/04/12 06:46:33;;;;;;;14.52;9.05;;;7.40;99.90;;;;;;5038991;28;20044;-76
2022/04/12 06:48:58;;;;;;;19.05;10.00;;;7.50;99.90;;;;;;5067049;28;20659;-76
2022/04/12 06:51:24;;;;;;;17.48;9.75;;;7.50;99.90;;;;;;5049237;28;20044;-75
2022/04/12 06:53:50;;;;;;;19.48;9.98;;;7.50;99.90;;;;;;5036930;28;20099;-77
2022/04/12 06:56:16;;;;;;;16.13;9.25;;;7.60;99.90;;;;;;5052887;28;20044;-76
2022/04/12 06:58:43;;;;;;;15.13;8.95;;;7.60;99.90;;;;;;5049072;28;20059;-76
2022/04/12 07:01:09;;;;;;;15.48;8.50;;;7.70;99.90;;;;;;5031916;28;20094;-77
2022/04/12 07:03:35;;;;;;;19.05;9.32;;;7.80;99.90;;;;;;5022506;28;20055;-76
2022/04/12 07:06:01;;;;;;;17.33;8.98;;;7.90;99.90;;;;;;5044450;28;20041;-77
2022/04/12 07:08:27;;;;;;;13.57;8.88;;;8.00;99.90;;;;;;5065105;28;20105;-76
2022/04/12 07:10:52;;;;;;;17.05;9.45;;;8.00;99.90;;;;;;5058099;28;20045;-76
2022/04/12 07:13:19;;;;;;;14.90;9.00;;;8.10;99.90;;;;;;5059740;28;20083;-77
2022/04/12 07:15:46;;;;;;;14.40;9.20;;;8.20;99.90;;;;;;5064479;28;20048;-76
2022/04/12 07:18:12;;;;;;;14.57;9.20;;;8.30;99.90;;;;;;5047996;28;20397;-77
2022/04/12 07:20:37;;;;;;;16.00;9.18;;;8.40;99.90;;;;;;5050210;28;20044;-76
2022/04/12 07:23:03;;;;;;;21.35;10.00;;;8.70;99.90;;;;;;5047491;28;20040;-77
2022/04/12 07:25:29;;;;;;;15.05;8.40;;;8.90;99.90;;;;;;5045956;28;20514;-76
2022/04/12 07:27:55;;;;;;;18.17;9.82;;;9.40;99.90;;;;;;5065257;28;20110;-77
2022/04/12 07:30:20;;;;;;;16.02;9.63;;;9.20;99.90;;;;;;5059298;28;20036;-78
2022/04/12 07:32:46;;;;;;;18.00;9.40;;;9.40;99.90;;;;;;5031380;28;20125;-77
2022/04/12 07:35:12;;;;;;;15.23;9.13;;;9.00;99.90;;;;;;5040432;28;20055;-76
2022/04/12 07:37:42;;;;;;;16.02;9.88;;;9.80;99.90;;;;;;5052550;28;20112;-77
2022/04/12 07:40:08;;;;;;;17.42;9.82;;;9.70;99.90;;;;;;5063977;28;20037;-77
2022/04/12 07:42:34;;;;;;;14.98;8.52;;;9.90;99.90;;;;;;5053138;28;20455;-77
2022/04/12 07:45:00;;;;;;;17.42;8.75;;;10.20;99.90;;;;;;5068325;28;20055;-78
2022/04/12 07:47:25;;;;;;;15.18;9.50;;;10.60;99.90;;;;;;5068308;28;20094;-78
2022/04/12 07:49:51;;;;;;;13.60;8.57;;;10.90;99.90;;;;;;5049394;28;20048;-78
2022/04/12 07:52:17;;;;;;;15.45;9.30;;;11.10;99.90;;;;;;5033233;28;20048;-78
2022/04/12 07:54:42;;;;;;;15.40;9.25;;;11.10;99.90;;;;;;5051128;28;20040;-79
2022/04/12 07:57:08;;;;;;;14.25;8.77;;;11.20;99.90;;;;;;5050100;28;20049;-78
2022/04/12 07:59:34;;;;;;;15.07;8.60;;;11.30;99.90;;;;;;5067139;28;20429;-78
2022/04/12 08:01:59;;;;;;;13.25;8.95;;;11.50;99.90;;;;;;5067646;28;20380;-77
2022/04/12 08:04:25;;;;;;;14.13;9.18;;;11.60;99.90;;;;;;5032856;28;20051;-79
2022/04/12 08:06:51;;;;;;;14.68;9.65;;;11.60;99.90;;;;;;5049162;28;20432;-77
2022/04/12 08:09:16;;;;;;;14.63;8.85;;;11.50;99.90;;;;;;5032436;28;20040;-78
2022/04/12 08:11:42;;;;;;;18.40;9.25;;;11.50;99.90;;;;;;5067659;28;20412;-78
2022/04/12 08:14:08;;;;;;;14.95;8.27;;;11.70;99.90;;;;;;5032965;28;20098;-77
2022/04/12 08:16:34;;;;;;;13.13;8.80;;;11.90;99.90;;;;;;5032801;28;20048;-78
2022/04/12 08:18:59;;;;;;;16.00;9.10;;;12.20;99.90;;;;;;5049333;28;20041;-79
2022/04/12 08:21:32;;;;;;;16.90;9.35;;;12.40;99.90;;;;;;5048917;28;20105;-77
2022/04/12 08:23:58;;;;;;;13.60;8.07;;;12.50;99.90;;;;;;5049222;28;20044;-77
2022/04/12 08:26:24;;;;;;;15.00;8.57;;;12.60;99.90;;;;;;5048429;28;20033;-78
2022/04/12 08:28:50;;;;;;;15.48;9.05;;;12.70;99.90;;;;;;5032432;28;20048;-78
2022/04/12 08:31:16;;;;;;;16.83;8.82;;;12.90;99.90;;;;;;5031796;28;20041;-78
2022/04/12 08:33:42;;;;;;;14.50;8.60;;;13.00;99.90;;;;;;5048294;28;20055;-79
2022/04/12 08:36:07;;;;;;;15.18;9.05;;;13.00;99.90;;;;;;5067741;28;20626;-79
2022/04/12 08:38:33;;;;;;;13.32;8.75;;;13.10;99.90;;;;;;5043301;28;20417;-78
2022/04/12 08:41:02;;;;;;;13.77;8.65;;;13.20;99.90;;;;;;5067020;28;20535;-79
2022/04/12 08:43:29;;;;;;;14.20;8.30;;;13.20;99.90;;;;;;5048707;28;20048;-78
2022/04/12 08:45:55;;;;;;;14.10;8.57;;;13.30;99.90;;;;;;5044509;28;20171;-79
2022/04/12 08:48:22;;;;;;;15.68;8.63;;;13.30;99.90;;;;;;5012525;28;20049;-77
2022/04/12 08:50:49;;;;;;;14.63;8.15;;;13.40;99.90;;;;;;5012921;28;20079;-79
2022/04/12 08:53:18;;;;;;;13.27;8.02;;;13.40;99.90;;;;;;5047260;28;20378;-77
2022/04/12 08:55:45;;;;;;;14.77;8.43;;;13.50;99.90;;;;;;5066038;28;20132;-78
2022/04/12 08:58:11;;;;;;;14.23;9.07;;;13.50;99.90;;;;;;5049166;28;20102;-78
2022/04/12 09:00:36;;;;;;;13.30;8.95;;;13.70;99.90;;;;;;5068376;28;20036;-78
2022/04/12 09:03:03;;;;;;;16.92;8.60;;;13.70;99.90;;;;;;5052698;28;20048;-79
2022/04/12 09:05:33;;;;;;;14.77;8.65;;;13.70;99.90;;;;;;5052568;28;20386;-79
2022/04/12 09:08:02;;;;;;;13.98;8.52;;;13.70;99.90;;;;;;5053545;28;20044;-78
2022/04/12 09:10:37;;;;;;;12.98;8.18;;;13.80;99.90;;;;;;5052077;28;20520;-78
2022/04/12 09:13:14;;;;;;;18.83;8.50;;;14.10;99.90;;;;;;5051912;28;20048;-78
2022/04/12 09:15:44;;;;;;;14.95;8.32;;;14.30;99.90;;;;;;5070769;28;20379;-77
2022/04/12 09:18:11;;;;;;;14.37;9.03;;;14.30;99.90;;;;;;5052041;28;20512;-78
2022/04/12 09:20:36;;;;;;;15.30;8.18;;;14.30;99.90;;;;;;5055184;28;20691;-79
2022/04/12 09:23:02;;;;;;;16.30;9.32;;;14.50;99.90;;;;;;5034010;28;20058;-78
2022/04/12 09:25:28;;;;;;;14.48;8.20;;;14.60;99.90;;;;;;5069975;28;20102;-78
2022/04/12 09:27:55;;;;;;;14.02;8.30;;;14.80;99.90;;;;;;5052825;28;20454;-78
2022/04/12 09:30:21;;;;;;;18.85;9.00;;;15.00;99.90;;;;;;5053361;28;20041;-79
2022/04/12 09:32:48;;;;;;;13.27;8.18;;;15.20;99.90;;;;;;5067570;28;20389;-79
2022/04/12 09:35:15;;;;;;;17.40;9.45;;;15.40;99.90;;;;;;5058730;28;20139;-77
2022/04/12 09:37:43;;;;;;;12.68;7.82;;;15.40;99.90;;;;;;5017614;28;20360;-78
2022/04/12 09:40:14;;;;;;;13.38;8.02;;;15.50;99.90;;;;;;5034438;28;20088;-77
2022/04/12 09:42:49;;;;;;;14.57;8.63;;;15.60;99.90;;;;;;5048996;28;20409;-79
2022/04/12 09:45:26;;;;;;;15.82;7.88;;;15.80;99.90;;;;;;5070100;28;20449;-78
2022/04/12 09:48:01;;;;;;;12.52;8.05;;;15.80;99.40;;;;;;5052827;28;20461;-80
2022/04/12 09:50:30;;;;;;;12.27;8.00;;;15.70;99.80;;;;;;5033776;28;20044;-79
2022/04/12 09:53:03;;;;;;;14.65;8.63;;;15.70;97.20;;;;;;5050719;28;20048;-79
2022/04/12 09:55:43;;;;;;;16.58;8.73;;;15.60;98.40;;;;;;5012984;28;20044;-71
2022/04/12 09:58:14;;;;;;;13.23;8.27;;;15.70;99.20;;;;;;5069698;28;20459;-71
2022/04/12 10:00:42;;;;;;;13.63;8.05;;;15.80;99.50;;;;;;5051397;28;20044;-71
2022/04/12 10:03:13;;;;;;;13.43;8.07;;;15.90;99.90;;;;;;5069133;28;20397;-71
2022/04/12 10:05:39;;;;;;;15.20;8.60;;;16.00;99.10;;;;;;5034683;28;20048;-71
2022/04/12 10:08:06;;;;;;;14.05;8.27;;;16.10;98.70;;;;;;5069377;28;20044;-72
2022/04/12 10:10:32;;;;;;;15.23;8.05;;;16.10;99.50;;;;;;5034261;28;20085;-71
2022/04/12 10:13:02;;;;;;;14.23;8.55;;;16.30;99.90;;;;;;5050751;28;20076;-71
2022/04/12 10:15:28;;;;;;;15.68;8.88;;;16.40;99.40;;;;;;5034532;28;20087;-71
2022/04/12 10:17:55;;;;;;;13.23;9.05;;;16.50;98.10;;;;;;5069399;28;20497;-72
2022/04/12 10:20:21;;;;;;;13.05;8.35;;;16.50;97.90;;;;;;5050517;28;20134;-71
2022/04/12 10:22:48;;;;;;;13.63;8.57;;;16.50;98.20;;;;;;5069286;28;20427;-70
2022/04/12 10:25:21;;;;;;;14.48;8.82;;;16.50;97.30;;;;;;5065973;28;20067;-70
2022/04/12 10:27:55;;;;;;;12.80;7.93;;;16.60;97.60;;;;;;5032281;28;20095;-71
2022/04/12 10:30:25;;;;;;;13.20;7.93;;;16.70;98.60;;;;;;5030511;28;20049;-71
2022/04/12 10:32:59;;;;;;;18.40;8.57;;;16.80;97.30;;;;;;5031842;28;20270;-71
2022/04/12 10:35:25;;;;;;;13.52;7.72;;;16.80;96.40;;;;;;5013594;28;20353;-71
2022/04/12 10:37:56;;;;;;;13.80;8.35;;;16.80;97.70;;;;;;5030823;28;20045;-71
2022/04/12 10:40:28;;;;;;;12.65;8.15;;;16.70;96.80;;;;;;5049262;28;20041;-71
2022/04/12 10:42:55;;;;;;;13.80;8.18;;;16.80;96.90;;;;;;5032290;28;20516;-71
2022/04/12 10:45:32;;;;;;;15.23;9.05;;;16.90;96.80;;;;;;5050078;28;20076;-71
2022/04/12 10:48:02;;;;;;;14.57;8.32;;;16.90;96.70;;;;;;5045592;28;20053;-70
2022/04/12 10:50:38;;;;;;;12.77;8.52;;;16.70;96.60;;;;;;5030214;28;20041;-71
2022/04/12 10:53:04;;;;;;;12.15;7.82;;;16.70;97.40;;;;;;5030754;28;20068;-71
2022/04/12 10:55:40;;;;;;;15.35;8.38;;;16.80;95.60;;;;;;5029214;28;20497;-72
2022/04/12 10:58:28;;;;;;;14.13;8.63;;;16.80;96.90;;;;;;5049446;28;20047;-71
2022/04/12 11:00:54;;;;;;;15.27;9.40;;;16.90;96.90;;;;;;5030437;28;20044;-71
2022/04/12 11:03:40;;;;;;;15.52;8.60;;;17.10;97.00;;;;;;5031611;28;20493;-72
2022/04/12 11:06:27;;;;;;;13.35;8.38;;;17.20;96.70;;;;;;5048294;28;20087;-71
2022/04/12 11:08:55;;;;;;;18.13;8.98;;;17.30;96.50;;;;;;5031666;28;20033;-71
2022/04/12 11:11:27;;;;;;;14.63;9.15;;;17.50;95.40;;;;;;5039954;28;20083;-72
2022/04/12 11:13:53;;;;;;;;;;;17.50;96.20;;;;;;5051714;28;20067;-71
2022/04/12 11:16:24;;;;;;;13.77;8.52;;;17.50;95.10;;;;;;5068200;28;19967;-71
2022/04/12 11:18:50;;;;;;;14.32;8.68;;;17.60;96.60;;;;;;5034831;28;20477;-71
2022/04/12 11:21:18;;;;;;;14.20;8.40;;;17.60;96.30;;;;;;5050666;28;20040;-71
2022/04/12 11:23:51;;;;;;;14.57;9.00;;;17.70;96.40;;;;;;5049579;28;20037;-71
2022/04/12 11:26:27;;;;;;;17.10;7.90;;;17.80;94.80;;;;;;5029546;28;20048;-72
2022/04/12 11:28:56;;;;;;;12.93;8.02;;;17.80;95.70;;;;;;5047805;28;20099;-71
2022/04/12 11:31:22;;;;;;;12.68;7.60;;;17.90;96.10;;;;;;5014496;28;20059;-71
2022/04/12 11:33:49;;;;;;;12.80;7.65;;;18.00;94.50;;;;;;5047444;28;20087;-71
2022/04/12 11:36:18;;;;;;;15.45;7.68;;;18.00;95.10;;;;;;5047260;28;20041;-72
2022/04/12 11:38:44;;;;;;;15.25;8.60;;;18.00;95.50;;;;;;5029731;28;20569;-72
2022/04/12 11:41:10;;;;;;;12.30;7.80;;;18.20;94.40;;;;;;5058914;28;20048;-72
2022/04/12 11:43:36;;;;;;;13.23;6.50;;;18.20;93.80;;;;;;5021038;28;20486;-71
2022/04/12 11:46:02;;;;;;;14.15;8.15;;;18.30;93.90;;;;;;5047261;28;20124;-72
2022/04/12 11:48:29;;;;;;;14.77;8.23;;;18.30;92.80;;;;;;5029771;28;20052;-71
2022/04/12 11:50:56;;;;;;;13.32;7.50;;;18.30;92.00;;;;;;5029638;28;20103;-73
2022/04/12 11:53:24;;;;;;;12.95;7.75;;;18.20;92.50;;;;;;5013063;28;20048;-72
2022/04/12 11:55:50;;;;;;;13.65;8.18;;;18.10;93.30;;;;;;5047038;28;20048;-71
2022/04/12 11:58:19;;;;;;;15.10;7.95;;;18.20;92.80;;;;;;5046426;28;20505;-71
2022/04/12 12:00:45;;;;;;;14.73;7.95;;;18.10;93.70;;;;;;5047338;28;20056;-71
2022/04/12 12:03:18;;;;;;;11.75;7.80;;;18.20;93.80;;;;;;5013168;28;20045;-71
2022/04/12 12:05:45;;;;;;;13.77;7.72;;;18.20;93.40;;;;;;5029280;28;20478;-72
2022/04/12 12:08:11;;;;;;;12.93;7.90;;;18.10;93.30;;;;;;5029321;28;20041;-71
2022/04/12 12:10:37;;;;;;;13.98;7.88;;;18.00;93.30;;;;;;5033747;28;20044;-72
2022/04/12 12:13:07;;;;;;;12.85;6.78;;;18.10;93.70;;;;;;5049120;28;20037;-72
2022/04/12 12:15:34;;;;;;;12.23;7.40;;;18.20;94.10;;;;;;5048509;28;20121;-72
2022/04/12 12:18:06;;;;;;;12.43;7.25;;;18.20;94.60;;;;;;5049312;28;20048;-71
2022/04/12 12:20:34;;;;;;;13.18;8.07;;;18.40;94.20;;;;;;5048670;28;20465;-72
2022/04/12 12:23:02;;;;;;;13.52;8.48;;;18.30;92.80;;;;;;5049283;28;20123;-71
2022/04/12 12:25:55;;;;;;;13.98;7.82;;;18.40;91.90;;;;;;5048746;28;20062;-72
2022/04/12 12:28:25;;;;;;;16.00;8.32;;;18.30;93.40;;;;;;5048673;28;20049;-72
2022/04/12 12:31:03;;;;;;;13.82;8.35;;;18.40;93.80;;;;;;5049148;28;20072;-72
2022/04/12 12:33:44;;;;;;;13.07;7.30;;;18.40;93.30;;;;;;5045470;28;20041;-72
2022/04/12 12:36:18;;;;;;;14.52;7.78;;;18.50;94.00;;;;;;5031837;28;20048;-71
2022/04/12 12:38:44;;;;;;;13.45;8.27;;;18.50;94.10;;;;;;5016611;28;20037;-71
2022/04/12 12:41:10;;;;;;;13.90;8.15;;;18.50;92.70;;;;;;5057052;28;20048;-71
2022/04/12 12:43:36;;;;;;;15.30;8.48;;;18.50;93.00;;;;;;5046301;28;20045;-71
2022/04/12 12:46:06;;;;;;;13.27;7.78;;;18.50;93.40;;;;;;5070228;28;20051;-71